Time;durP1;ratioP1;P1;durP2;ratioP2;P2;SDS_P1;SDS_P2;PMS_P1;PMS_P2;Temp;Humidity;BMP_temperature;BMP_pressure;BME280_temperature;BME280_humidity;BME280_pressure;Samples;Min_cycle;Max_cycle;Signal;HPM_P1;HPM_P2
2021/12/12 00:01:25;;;;;;;22.90;12.85;;;;;;;0.20;82.93;96992.19;5109096;28;20052;-74
2021/12/12 00:03:56;;;;;;;22.83;13.27;;;;;;;0.24;82.94;96996.03;5109461;28;20083;-74
2021/12/12 00:06:27;;;;;;;21.17;12.07;;;;;;;0.28;82.99;97003.59;5108877;28;20134;-74
2021/12/12 00:08:58;;;;;;;21.77;12.32;;;;;;;0.34;82.90;97008.00;5109404;28;20051;-74
2021/12/12 00:11:30;;;;;;;21.90;13.07;;;;;;;0.36;82.70;97005.91;5108272;28;20043;-74
2021/12/12 00:14:01;;;;;;;20.95;11.45;;;;;;;0.40;82.65;97009.75;5109513;28;20461;-74
2021/12/12 00:16:28;;;;;;;23.98;12.48;;;;;;;0.45;82.66;97002.63;5108794;28;20039;-74
2021/12/12 00:18:54;;;;;;;21.27;12.48;;;;;;;0.49;82.57;97013.69;5109046;28;20043;-74
2021/12/12 00:21:25;;;;;;;20.15;12.07;;;;;;;0.54;82.51;97015.66;5108506;28;20058;-74
2021/12/12 00:23:52;;;;;;;21.48;12.32;;;;;;;0.62;82.66;97018.75;5108878;28;20055;-73
2021/12/12 00:26:18;;;;;;;21.25;12.27;;;;;;;0.74;82.33;97024.09;5108018;28;20054;-74
2021/12/12 00:28:46;;;;;;;20.70;11.55;;;;;;;0.79;81.72;97029.56;5108976;28;20039;-74
2021/12/12 00:31:16;;;;;;;21.67;12.40;;;;;;;0.83;81.53;97024.50;5108744;28;20048;-74
2021/12/12 00:33:47;;;;;;;20.75;11.38;;;;;;;0.86;81.30;97024.03;5109048;28;20048;-74
2021/12/12 00:36:17;;;;;;;19.42;11.73;;;;;;;0.87;81.30;97025.66;5107651;28;20053;-75
2021/12/12 00:38:47;;;;;;;18.75;11.32;;;;;;;0.89;81.31;97018.19;5108897;28;20047;-75
2021/12/12 00:41:20;;;;;;;18.48;11.65;;;;;;;0.91;81.18;97016.91;5108070;28;20117;-73
2021/12/12 00:43:50;;;;;;;18.98;10.55;;;;;;;0.91;81.40;97021.44;5109085;28;20043;-74
2021/12/12 00:46:18;;;;;;;21.48;11.40;;;;;;;0.90;81.47;97026.00;5108209;28;20048;-74
2021/12/12 00:48:45;;;;;;;18.67;11.30;;;;;;;0.93;81.46;97022.00;5108603;28;20048;-73
2021/12/12 00:51:16;;;;;;;17.17;10.18;;;;;;;0.97;81.41;97028.53;5108244;28;20051;-74
2021/12/12 00:53:45;;;;;;;18.58;11.00;;;;;;;1.00;81.72;97030.75;5108630;28;20079;-74
2021/12/12 00:56:13;;;;;;;19.63;11.60;;;;;;;1.08;81.44;97021.47;5108023;28;20055;-74
2021/12/12 00:58:40;;;;;;;18.48;10.93;;;;;;;1.15;81.63;97031.03;5108479;28;20039;-74
2021/12/12 01:01:09;;;;;;;18.58;10.52;;;;;;;1.20;81.26;97031.13;5108334;28;20055;-74
2021/12/12 01:03:42;;;;;;;20.23;10.93;;;;;;;1.18;81.31;97030.53;5108367;28;20048;-74
2021/12/12 01:06:11;;;;;;;16.70;9.73;;;;;;;1.15;81.60;97033.72;5107986;28;20048;-73
2021/12/12 01:08:39;;;;;;;20.48;11.50;;;;;;;1.15;81.92;97032.88;5108072;28;20057;-74
2021/12/12 01:11:11;;;;;;;19.27;11.38;;;;;;;1.18;82.02;97033.22;5107471;28;20047;-73
2021/12/12 01:13:38;;;;;;;20.17;10.83;;;;;;;1.19;82.07;97037.50;5108289;28;20639;-74
2021/12/12 01:16:09;;;;;;;17.08;10.45;;;;;;;1.20;82.15;97035.63;5107646;28;20074;-74
2021/12/12 01:18:45;;;;;;;17.05;10.20;;;;;;;1.20;82.23;97041.84;5107578;28;20047;-74
2021/12/12 01:21:15;;;;;;;18.02;10.57;;;;;;;1.23;82.10;97041.34;5107659;28;20048;-74
2021/12/12 01:23:46;;;;;;;18.60;10.63;;;;;;;1.24;82.14;97048.34;5108205;28;20051;-74
2021/12/12 01:26:15;;;;;;;17.98;10.63;;;;;;;1.24;82.13;97037.59;5107785;28;20426;-73
2021/12/12 01:28:49;;;;;;;18.20;10.77;;;;;;;1.21;82.44;97048.84;5107882;28;20051;-74
2021/12/12 01:31:24;;;;;;;20.35;11.68;;;;;;;1.18;82.83;97051.97;5107765;28;20089;-73
2021/12/12 01:33:58;;;;;;;20.58;12.00;;;;;;;1.22;82.95;97046.97;5107934;28;20048;-73
2021/12/12 01:36:29;;;;;;;18.00;11.13;;;;;;;1.24;82.84;97052.88;5107596;28;20051;-74
2021/12/12 01:38:57;;;;;;;19.05;10.95;;;;;;;1.28;82.87;97057.53;5107865;28;20043;-74
2021/12/12 01:41:28;;;;;;;18.23;11.23;;;;;;;1.27;82.87;97061.28;5109481;28;20054;-74
2021/12/12 01:44:01;;;;;;;21.67;11.50;;;;;;;1.28;83.12;97062.09;5107719;28;20514;-74
2021/12/12 01:46:34;;;;;;;20.73;10.60;;;;;;;1.32;83.17;97059.75;5099324;28;20061;-74
2021/12/12 01:49:04;;;;;;;19.85;10.77;;;;;;;1.29;83.38;97064.53;5111521;28;20047;-74
2021/12/12 01:51:34;;;;;;;19.80;11.20;;;;;;;1.30;83.36;97063.50;5104141;28;20679;-74
2021/12/12 01:54:06;;;;;;;20.58;10.60;;;;;;;1.36;83.47;97060.88;5111960;28;20474;-74
2021/12/12 01:56:39;;;;;;;19.63;10.63;;;;;;;1.39;83.45;97063.09;5104397;28;20039;-76
2021/12/12 01:59:08;;;;;;;21.63;11.85;;;;;;;1.36;83.56;97066.25;5111457;28;20070;-73
2021/12/12 02:01:41;;;;;;;20.27;11.48;;;;;;;1.36;83.92;97066.25;5111970;28;20056;-74
2021/12/12 02:04:11;;;;;;;19.13;11.10;;;;;;;1.38;83.81;97064.16;5111639;28;20047;-74
2021/12/12 02:06:38;;;;;;;19.45;11.05;;;;;;;1.34;83.88;97068.34;5112257;28;20694;-74
2021/12/12 02:09:07;;;;;;;21.20;11.38;;;;;;;1.35;84.22;97068.09;5111597;28;20055;-73
2021/12/12 02:11:36;;;;;;;21.23;12.13;;;;;;;1.36;84.25;97066.25;5111361;28;20051;-74
2021/12/12 02:14:10;;;;;;;21.83;11.63;;;;;;;1.38;84.48;97066.81;5111232;28;20040;-73
2021/12/12 02:16:40;;;;;;;19.75;11.43;;;;;;;1.37;84.25;97067.88;5111340;28;20043;-74
2021/12/12 02:19:07;;;;;;;24.15;11.57;;;;;;;1.34;84.68;97076.41;5110910;28;20047;-73
2021/12/12 02:21:48;;;;;;;21.30;12.25;;;;;;;1.30;84.74;97066.19;5111608;28;20055;-74
2021/12/12 02:35:23;;;;;;;23.75;11.85;;;;;;;1.27;85.27;97069.31;5110570;28;20078;-74
2021/12/12 02:37:53;;;;;;;24.77;13.52;;;;;;;1.30;85.29;97071.53;5111180;28;20218;-74
2021/12/12 02:40:25;;;;;;;20.67;11.70;;;;;;;1.33;85.23;97078.28;5110376;28;20055;-74
2021/12/12 02:42:53;;;;;;;20.60;12.07;;;;;;;1.35;85.17;97075.34;5111019;28;20040;-74
2021/12/12 02:45:21;;;;;;;21.23;12.13;;;;;;;1.36;85.12;97083.19;5110511;28;20055;-74
2021/12/12 02:47:56;;;;;;;22.75;12.43;;;;;;;1.33;85.24;97082.84;5110689;28;20039;-74
2021/12/12 02:50:25;;;;;;;20.75;12.02;;;;;;;1.36;85.06;97088.53;5110421;28;20066;-74
2021/12/12 02:52:54;;;;;;;22.88;11.82;;;;;;;1.41;85.03;97090.47;5110976;28;20062;-74
2021/12/12 02:55:26;;;;;;;21.95;12.45;;;;;;;1.40;85.02;97083.50;5110198;28;20502;-74
2021/12/12 02:57:53;;;;;;;21.88;12.52;;;;;;;1.41;84.88;97088.63;5110706;28;20490;-74
2021/12/12 03:00:24;;;;;;;21.48;12.20;;;;;;;1.42;84.88;97081.41;5109196;28;20047;-74
2021/12/12 03:02:57;;;;;;;21.55;12.88;;;;;;;1.45;85.05;97086.25;5110622;28;20039;-74
2021/12/12 03:05:25;;;;;;;23.88;13.30;;;;;;;1.47;84.86;97084.16;5110283;28;20050;-74
2021/12/12 03:07:52;;;;;;;25.20;13.63;;;;;;;1.50;84.74;97089.03;5110706;28;20446;-74
2021/12/12 03:10:26;;;;;;;23.08;12.73;;;;;;;1.53;84.59;97089.38;5109958;28;20043;-74
2021/12/12 03:12:54;;;;;;;24.05;12.68;;;;;;;1.54;84.68;97098.25;5110686;28;20047;-74
2021/12/12 03:15:23;;;;;;;20.70;12.00;;;;;;;1.56;84.37;97093.44;5109745;28;20047;-74
2021/12/12 03:17:53;;;;;;;24.20;13.40;;;;;;;1.59;84.49;97097.53;5110396;28;20078;-74
2021/12/12 03:20:24;;;;;;;21.95;13.27;;;;;;;1.59;84.56;97095.66;5109749;28;20060;-74
2021/12/12 03:22:53;;;;;;;21.02;12.55;;;;;;;1.54;84.36;97085.63;5110359;28;20126;-74
2021/12/12 03:25:20;;;;;;;22.20;12.40;;;;;;;1.58;84.33;97080.59;5109602;28;20055;-73
2021/12/12 03:27:48;;;;;;;21.83;12.27;;;;;;;1.56;84.48;97088.06;5110151;28;20047;-74
2021/12/12 03:30:15;;;;;;;21.10;12.93;;;;;;;1.60;84.54;97088.41;5109819;28;20134;-74
2021/12/12 03:32:42;;;;;;;19.73;12.80;;;;;;;1.60;84.41;97094.59;5110155;28;20055;-74
2021/12/12 03:35:11;;;;;;;22.70;12.15;;;;;;;1.58;84.42;97091.34;5109437;28;20051;-74
2021/12/12 03:37:40;;;;;;;21.85;12.30;;;;;;;1.58;84.27;97085.16;5109785;28;20048;-74
2021/12/12 03:40:14;;;;;;;19.92;11.32;;;;;;;1.55;84.49;97083.75;5106880;28;20051;-74
2021/12/12 03:42:44;;;;;;;24.83;12.38;;;;;;;1.52;84.63;97082.38;5109785;28;20055;-74
2021/12/12 03:45:13;;;;;;;22.33;11.55;;;;;;;1.52;84.74;97087.75;5109313;28;20498;-74
2021/12/12 03:47:44;;;;;;;22.63;12.00;;;;;;;1.52;84.55;97089.63;5109661;28;20055;-74
2021/12/12 03:50:14;;;;;;;20.10;11.40;;;;;;;1.52;84.59;97089.63;5109520;28;20557;-74
2021/12/12 03:52:41;;;;;;;21.00;11.30;;;;;;;1.49;84.57;97087.41;5109734;28;20040;-74
2021/12/12 03:55:11;;;;;;;20.67;11.38;;;;;;;1.45;84.58;97088.94;5109365;28;20044;-73
2021/12/12 03:57:37;;;;;;;22.48;11.68;;;;;;;1.39;84.99;97088.03;5109295;28;20043;-74
2021/12/12 04:00:07;;;;;;;20.98;11.27;;;;;;;1.37;85.11;97086.66;5109604;28;20051;-73
2021/12/12 04:02:35;;;;;;;19.00;11.50;;;;;;;1.35;85.16;97091.44;5109590;28;20043;-74
2021/12/12 04:05:01;;;;;;;19.42;11.23;;;;;;;1.29;85.16;97088.66;5109463;28;20047;-71
2021/12/12 04:07:29;;;;;;;22.95;12.15;;;;;;;1.30;85.26;97090.31;5109465;28;20063;-74
2021/12/12 04:09:57;;;;;;;20.52;11.38;;;;;;;1.32;85.24;97098.13;5108938;28;20411;-74
2021/12/12 04:12:24;;;;;;;19.48;11.10;;;;;;;1.29;85.24;97094.03;5107919;28;20514;-74
2021/12/12 04:14:53;;;;;;;22.88;12.13;;;;;;;1.30;85.30;97101.06;5109458;28;20518;-74
2021/12/12 04:17:22;;;;;;;20.63;11.88;;;;;;;1.28;85.46;97108.50;5108621;28;20063;-74
2021/12/12 04:19:54;;;;;;;22.88;11.98;;;;;;;1.27;85.45;97112.25;5109364;28;20434;-74
2021/12/12 04:22:21;;;;;;;19.63;11.35;;;;;;;1.28;85.57;97113.88;5108857;28;20055;-74
2021/12/12 04:24:49;;;;;;;23.92;12.32;;;;;;;1.32;85.70;97124.16;5109075;28;20050;-74
2021/12/12 04:27:17;;;;;;;23.63;12.52;;;;;;;1.31;85.29;97128.69;5108065;28;20066;-74
2021/12/12 04:29:47;;;;;;;18.23;10.88;;;;;;;1.27;85.62;97136.41;5109110;28;20627;-73
2021/12/12 04:32:17;;;;;;;23.20;12.45;;;;;;;1.25;85.47;97141.22;5108354;28;20050;-74
2021/12/12 04:34:49;;;;;;;24.98;11.93;;;;;;;1.23;85.73;97137.13;5109347;28;20052;-74
2021/12/12 04:37:18;;;;;;;18.85;11.35;;;;;;;1.27;85.80;97144.44;5108225;28;20052;-73
2021/12/12 04:39:48;;;;;;;20.52;12.27;;;;;;;1.28;85.61;97156.00;5109229;28;20482;-74
2021/12/12 04:42:18;;;;;;;20.77;11.70;;;;;;;1.30;85.66;97154.72;5108645;27;20047;-74
2021/12/12 04:44:48;;;;;;;21.60;11.18;;;;;;;1.33;85.39;97157.97;5108741;28;20050;-74
2021/12/12 04:50:18;;;;;;;20.17;11.35;;;;;;;1.38;85.29;97168.81;5108386;28;20054;-74
2021/12/12 04:52:51;;;;;;;17.35;10.55;;;;;;;1.39;85.12;97173.91;5108857;28;20044;-74
2021/12/12 04:55:24;;;;;;;18.27;10.63;;;;;;;1.41;84.92;97168.31;5108103;28;20516;-74
2021/12/12 04:57:58;;;;;;;18.83;11.10;;;;;;;1.43;84.97;97174.25;5108585;28;20054;-74
2021/12/12 05:00:30;;;;;;;21.48;11.18;;;;;;;1.44;84.70;97176.69;5108072;28;20681;-74
2021/12/12 05:03:01;;;;;;;19.35;11.45;;;;;;;1.44;84.96;97189.31;5108593;28;20133;-74
2021/12/12 05:05:32;;;;;;;20.15;11.30;;;;;;;1.46;85.09;97189.88;5108133;28;20430;-74
2021/12/12 05:08:05;;;;;;;19.15;10.85;;;;;;;1.51;85.02;97187.28;5108655;28;20050;-74
2021/12/12 05:10:37;;;;;;;17.35;9.15;;;;;;;1.50;84.83;97186.47;5108693;27;20050;-74
2021/12/12 05:13:11;;;;;;;24.42;11.27;;;;;;;1.55;84.51;97188.44;5107965;28;20051;-73
2021/12/12 05:15:40;;;;;;;21.02;11.60;;;;;;;1.57;84.39;97191.72;5108184;28;20066;-73
2021/12/12 05:18:11;;;;;;;20.25;11.10;;;;;;;1.56;84.13;97192.75;5107575;28;20131;-73
2021/12/12 05:20:42;;;;;;;19.83;11.00;;;;;;;1.56;84.20;97198.13;5108248;28;20040;-74
2021/12/12 05:23:13;;;;;;;24.52;11.50;;;;;;;1.59;84.28;97210.25;5107443;28;20050;-74
2021/12/12 05:25:44;;;;;;;18.00;10.55;;;;;;;1.62;83.80;97212.44;5108131;28;20051;-74
2021/12/12 05:28:11;;;;;;;21.73;11.48;;;;;;;1.63;83.89;97212.22;5107494;28;20777;-73
2021/12/12 05:30:39;;;;;;;17.67;10.07;;;;;;;1.65;83.75;97212.78;5107994;28;20077;-74
2021/12/12 05:33:07;;;;;;;18.05;10.73;;;;;;;1.67;83.33;97216.06;5107745;28;20051;-74
2021/12/12 05:35:36;;;;;;;18.15;9.70;;;;;;;1.68;83.21;97206.97;5107937;28;20521;-74
2021/12/12 05:38:04;;;;;;;19.50;10.93;;;;;;;1.68;83.09;97206.97;5107435;28;20044;-73
2021/12/12 05:40:36;;;;;;;18.58;10.40;;;;;;;1.71;83.25;97208.34;5108379;28;20410;-74
2021/12/12 05:43:05;;;;;;;19.08;11.27;;;;;;;1.74;83.41;97203.31;5107553;28;20055;-73
2021/12/12 05:45:34;;;;;;;17.38;10.23;;;;;;;1.79;82.92;97210.66;5108231;28;20634;-74
2021/12/12 05:48:01;;;;;;;21.55;10.85;;;;;;;1.82;82.94;97205.59;5107474;28;20039;-74
2021/12/12 05:50:28;;;;;;;17.70;10.40;;;;;;;1.84;82.71;97208.06;5107992;28;20043;-73
2021/12/12 05:52:55;;;;;;;18.17;10.57;;;;;;;1.85;82.88;97214.22;5107701;28;20502;-74
2021/12/12 05:55:25;;;;;;;19.73;10.95;;;;;;;1.86;82.61;97221.22;5107616;28;20071;-74
2021/12/12 05:57:55;;;;;;;20.38;10.32;;;;;;;1.85;82.92;97219.59;5107280;28;20044;-74
2021/12/12 06:00:26;;;;;;;17.63;10.05;;;;;;;1.83;82.62;97220.66;5107425;28;20566;-74
2021/12/12 06:02:54;;;;;;;17.00;10.10;;;;;;;1.83;82.38;97217.97;5107662;28;20044;-74
2021/12/12 06:05:21;;;;;;;17.02;9.57;;;;;;;1.86;82.96;97211.31;5107802;28;20047;-74
2021/12/12 06:07:49;;;;;;;14.23;9.10;;;;;;;1.87;82.14;97217.47;5107832;28;20043;-74
2021/12/12 06:10:17;;;;;;;12.85;7.80;;;;;;;1.90;81.17;97222.38;5107835;28;20075;-74
2021/12/12 06:12:45;;;;;;;17.65;9.00;;;;;;;1.89;80.85;97232.31;5087354;28;20059;-74
2021/12/12 06:15:17;;;;;;;12.90;7.65;;;;;;;1.93;80.60;97233.47;5087101;28;20410;-73
2021/12/12 06:17:47;;;;;;;13.38;7.47;;;;;;;1.94;80.24;97242.34;5087457;28;20044;-74
2021/12/12 06:20:14;;;;;;;14.30;8.13;;;;;;;1.90;80.00;97243.88;5087108;28;20055;-74
2021/12/12 06:22:41;;;;;;;13.77;8.35;;;;;;;1.93;80.13;97240.69;5087201;28;20048;-74
2021/12/12 06:25:10;;;;;;;14.82;8.85;;;;;;;1.95;80.32;97241.28;5086642;28;20048;-74
2021/12/12 06:27:37;;;;;;;14.98;9.18;;;;;;;1.96;80.14;97240.22;5086950;28;20059;-74
2021/12/12 06:30:08;;;;;;;14.40;8.48;;;;;;;1.98;80.03;97240.78;5086876;28;20044;-73
2021/12/12 06:32:36;;;;;;;14.80;8.57;;;;;;;1.95;79.84;97238.59;5087094;28;20052;-74
2021/12/12 06:35:04;;;;;;;16.20;9.15;;;;;;;1.94;79.95;97245.03;5092800;28;20051;-73
2021/12/12 06:37:31;;;;;;;16.13;9.13;;;;;;;1.94;80.34;97239.66;5110729;28;20051;-73
2021/12/12 06:39:58;;;;;;;14.38;8.68;;;;;;;1.99;80.51;97243.25;5111231;28;20577;-74
2021/12/12 06:42:26;;;;;;;15.90;9.27;;;;;;;2.04;80.12;97245.22;5110033;28;20051;-73
2021/12/12 06:44:52;;;;;;;15.98;8.95;;;;;;;2.01;80.38;97256.44;5111367;28;20051;-74
2021/12/12 06:47:19;;;;;;;16.63;9.32;;;;;;;2.03;80.56;97248.94;5110428;28;20062;-74
2021/12/12 06:49:48;;;;;;;15.40;8.90;;;;;;;2.03;80.36;97254.31;5111586;28;20052;-74
2021/12/12 06:52:16;;;;;;;15.82;9.38;;;;;;;1.98;80.64;97257.72;5110618;28;20051;-73
2021/12/12 06:54:43;;;;;;;16.38;9.50;;;;;;;1.98;80.68;97270.31;5111079;28;20502;-74
2021/12/12 06:57:17;;;;;;;15.23;9.07;;;;;;;1.98;80.65;97267.63;5110200;28;20040;-73
2021/12/12 06:59:45;;;;;;;17.95;9.48;;;;;;;1.96;80.72;97269.75;5110998;28;20100;-74
2021/12/12 07:02:12;;;;;;;15.20;9.07;;;;;;;1.98;80.75;97265.75;5110550;28;20418;-74
2021/12/12 07:04:40;;;;;;;14.73;8.73;;;;;;;1.99;80.96;97274.66;5110718;28;20047;-74
2021/12/12 07:07:10;;;;;;;16.10;9.05;;;;;;;1.98;80.81;97276.50;5109982;28;20086;-73
2021/12/12 07:09:38;;;;;;;16.20;10.05;;;;;;;2.00;81.06;97278.97;5110613;28;20127;-74
2021/12/12 07:12:08;;;;;;;15.93;9.57;;;;;;;2.00;80.99;97281.66;5110715;27;20051;-73
2021/12/12 07:14:38;;;;;;;15.98;9.32;;;;;;;1.97;81.29;97277.56;5110267;28;20048;-74
2021/12/12 07:17:06;;;;;;;16.52;9.32;;;;;;;1.96;81.47;97280.50;5110051;28;20406;-73
2021/12/12 07:19:33;;;;;;;16.75;9.52;;;;;;;1.95;81.67;97285.06;5110644;28;20066;-74
2021/12/12 07:22:00;;;;;;;15.93;8.82;;;;;;;1.94;81.72;97278.06;5110669;28;20050;-74
2021/12/12 07:24:30;;;;;;;17.83;9.88;;;;;;;1.93;81.74;97291.72;5110069;28;20044;-74
2021/12/12 07:26:58;;;;;;;16.77;10.02;;;;;;;1.93;81.86;97294.41;5110166;28;20044;-74
2021/12/12 07:29:25;;;;;;;17.35;9.38;;;;;;;1.90;81.72;97300.28;5109158;28;20063;-74
2021/12/12 07:31:52;;;;;;;17.48;9.63;;;;;;;1.86;81.72;97301.81;5110314;28;20517;-74
2021/12/12 07:34:19;;;;;;;18.23;9.85;;;;;;;1.85;82.04;97313.59;5109372;28;20074;-74
2021/12/12 07:36:47;;;;;;;15.63;9.52;;;;;;;1.83;81.99;97317.34;5110042;28;20055;-73
2021/12/12 07:39:16;;;;;;;16.13;9.02;;;;;;;1.85;81.75;97313.59;5109424;28;20058;-74
2021/12/12 07:41:46;;;;;;;16.35;9.45;;;;;;;1.86;81.60;97318.72;5110574;27;20050;-74
2021/12/12 07:44:15;;;;;;;15.18;8.65;;;;;;;1.87;81.43;97316.84;5109465;28;20048;-74
2021/12/12 07:46:45;;;;;;;16.88;9.43;;;;;;;1.86;81.74;97320.59;5109304;28;20070;-74
2021/12/12 07:49:12;;;;;;;18.67;9.23;;;;;;;1.86;81.51;97320.59;5109266;28;20039;-73
2021/12/12 07:51:42;;;;;;;16.45;9.70;;;;;;;1.83;81.43;97320.03;5109935;28;20415;-73
2021/12/12 07:54:10;;;;;;;16.30;9.75;;;;;;;1.82;81.64;97326.44;5109250;28;20526;-72
2021/12/12 07:56:40;;;;;;;17.23;9.27;;;;;;;1.85;81.33;97322.47;5109795;28;20047;-73
2021/12/12 07:59:10;;;;;;;19.30;9.68;;;;;;;1.90;81.27;97330.63;5109227;28;20051;-73
2021/12/12 08:01:40;;;;;;;16.15;9.35;;;;;;;1.91;81.04;97324.19;5109745;28;20716;-74
2021/12/12 08:04:07;;;;;;;15.38;9.32;;;;;;;1.92;81.07;97322.31;5109144;28;20541;-73
2021/12/12 08:06:34;;;;;;;15.65;9.15;;;;;;;1.93;80.58;97329.31;5109590;28;20044;-73
2021/12/12 08:09:02;;;;;;;15.82;8.88;;;;;;;1.88;80.39;97326.53;5108990;28;20039;-74
2021/12/12 08:11:33;;;;;;;14.82;8.48;;;;;;;1.89;80.04;97328.19;5109148;27;20043;-73
2021/12/12 08:14:00;;;;;;;13.43;8.00;;;;;;;1.89;80.13;97329.00;5109497;28;20052;-73
2021/12/12 08:16:29;;;;;;;14.70;8.38;;;;;;;1.90;79.90;97319.06;5108881;28;20502;-73
2021/12/12 08:18:57;;;;;;;11.98;7.30;;;;;;;1.92;79.37;97316.97;5109573;28;20043;-74
2021/12/12 08:21:25;;;;;;;12.32;7.50;;;;;;;1.97;78.95;97319.75;5108983;28;20511;-73
2021/12/12 08:23:53;;;;;;;12.77;7.18;;;;;;;2.02;78.96;97327.91;5108873;28;20051;-72
2021/12/12 08:26:21;;;;;;;13.23;7.47;;;;;;;2.04;78.41;97331.19;5108845;28;20055;-74
2021/12/12 08:28:49;;;;;;;12.85;7.20;;;;;;;2.07;78.04;97325.31;5109349;28;20126;-73
2021/12/12 08:31:16;;;;;;;11.77;7.18;;;;;;;2.12;78.02;97329.97;5107041;28;20055;-72
2021/12/12 08:33:44;;;;;;;11.15;6.63;;;;;;;2.16;77.14;97328.44;5108972;28;20068;-73
2021/12/12 08:36:11;;;;;;;11.27;6.70;;;;;;;2.16;77.24;97325.75;5108683;28;20044;-74
2021/12/12 08:38:38;;;;;;;12.23;6.80;;;;;;;2.16;76.88;97331.94;5109021;28;20051;-74
2021/12/12 08:41:06;;;;;;;11.55;7.05;;;;;;;2.17;76.91;97324.69;5107531;28;20043;-74
2021/12/12 08:43:33;;;;;;;10.73;6.45;;;;;;;2.18;76.84;97335.19;5107837;28;20052;-73
2021/12/12 08:46:04;;;;;;;10.75;6.18;;;;;;;2.23;77.13;97335.28;5088332;28;20048;-74
2021/12/12 08:48:33;;;;;;;11.57;6.45;;;;;;;2.28;76.47;97332.69;5107141;28;20059;-73
2021/12/12 08:51:05;;;;;;;11.15;6.20;;;;;;;2.32;76.60;97335.72;5108734;28;20044;-74
2021/12/12 08:53:32;;;;;;;12.18;6.55;;;;;;;2.34;75.99;97339.78;5108530;28;20044;-73
2021/12/12 08:56:00;;;;;;;9.73;5.70;;;;;;;2.29;75.78;97333.50;5108172;28;20494;-73
2021/12/12 08:58:28;;;;;;;11.35;6.53;;;;;;;2.31;75.86;97334.91;5107506;28;20046;-73
2021/12/12 09:00:58;;;;;;;9.93;5.35;;;;;;;2.35;75.75;97336.06;5108270;28;20043;-73
2021/12/12 09:03:27;;;;;;;10.65;6.05;;;;;;;2.37;75.20;97345.75;5108061;28;20051;-74
2021/12/12 09:05:55;;;;;;;10.10;5.85;;;;;;;2.39;74.98;97338.25;5105647;28;20051;-73
2021/12/12 09:08:32;;;;;;;8.05;5.35;;;;;;;2.43;75.32;97336.72;5107332;28;20403;-73
2021/12/12 09:11:05;;;;;;;7.15;4.43;;;;;;;2.40;73.67;97350.63;5108650;28;20046;-73
2021/12/12 09:13:36;;;;;;;7.43;4.68;;;;;;;2.43;73.69;97348.28;5108170;28;20047;-73
2021/12/12 09:16:08;;;;;;;8.50;4.40;;;;;;;2.46;73.25;97345.13;5107738;28;20044;-73
2021/12/12 09:18:39;;;;;;;10.60;4.90;;;;;;;2.54;74.68;97349.28;5108495;28;20047;-73
2021/12/12 09:21:11;;;;;;;9.52;5.45;;;;;;;2.64;73.91;97348.66;5107817;28;20067;-73
2021/12/12 09:23:45;;;;;;;9.27;4.70;;;;;;;2.78;73.91;97348.09;5108296;28;20051;-73
2021/12/12 09:26:15;;;;;;;7.60;5.07;;;;;;;2.82;72.70;97349.25;5107983;28;20084;-73
2021/12/12 09:28:45;;;;;;;10.38;5.10;;;;;;;2.84;72.62;97351.69;5108157;28;20051;-73
2021/12/12 09:31:15;;;;;;;7.97;5.20;;;;;;;2.85;72.35;97351.44;5107319;28;20469;-73
2021/12/12 09:33:48;;;;;;;6.43;4.55;;;;;;;2.86;72.20;97353.06;5108535;28;20803;-73
2021/12/12 09:36:18;;;;;;;8.18;5.00;;;;;;;2.93;71.59;97350.22;5107610;28;20055;-74
2021/12/12 09:38:52;;;;;;;8.27;5.00;;;;;;;3.03;72.94;97342.31;5107865;28;20677;-74
2021/12/12 09:41:31;;;;;;;8.80;4.68;;;;;;;3.11;71.76;97335.69;5106837;28;20415;-74
2021/12/12 09:44:19;;;;;;;8.43;4.75;;;;;;;3.19;71.35;97343.38;5108234;28;20048;-74
2021/12/12 09:47:10;;;;;;;8.52;4.97;;;;;;;3.25;71.11;97342.38;5107747;28;20448;-74
2021/12/12 09:52:54;;;;;;;7.93;5.03;;;;;;;3.36;70.46;97332.56;5108093;28;20054;-74
2021/12/12 09:55:28;;;;;;;6.78;4.35;;;;;;;3.49;70.26;97321.41;5107597;28;20720;-72
2021/12/12 09:57:59;;;;;;;7.22;4.75;;;;;;;3.50;68.38;97322.22;5106759;28;20047;-74
2021/12/12 10:00:30;;;;;;;8.10;5.10;;;;;;;3.50;68.97;97316.84;5106654;28;20051;-74
2021/12/12 10:03:17;;;;;;;6.88;4.63;;;;;;;3.52;69.50;97315.56;5108068;28;20047;-75
2021/12/12 10:05:53;;;;;;;8.25;5.15;;;;;;;3.47;69.00;97317.38;5107595;28;20039;-74
2021/12/12 10:08:29;;;;;;;8.65;5.05;;;;;;;3.53;70.49;97321.75;5107971;28;20058;-73
2021/12/12 10:11:02;;;;;;;8.73;4.93;;;;;;;3.61;70.81;97324.03;5112520;27;20058;-74
2021/12/12 10:13:39;;;;;;;9.18;4.80;;;;;;;3.74;69.74;97312.84;5111202;28;20054;-74
2021/12/12 10:16:13;;;;;;;7.82;4.78;;;;;;;3.76;69.36;97308.06;5111296;28;20423;-74
2021/12/12 10:18:49;;;;;;;6.70;4.28;;;;;;;3.80;68.75;97309.16;5111577;28;20047;-74
2021/12/12 10:21:22;;;;;;;8.02;5.15;;;;;;;3.90;68.63;97311.16;5111223;28;20545;-74
2021/12/12 10:24:00;;;;;;;8.63;5.45;;;;;;;4.06;69.90;97304.06;5111694;28;20054;-74
2021/12/12 10:26:32;;;;;;;8.13;5.38;;;;;;;4.17;69.68;97300.41;5111237;28;20410;-75
2021/12/12 10:29:05;;;;;;;7.35;5.05;;;;;;;4.14;67.37;97300.94;5111958;28;20097;-72
2021/12/12 10:31:39;;;;;;;8.32;5.30;;;;;;;3.98;68.50;97297.25;5111609;28;20051;-74
2021/12/12 10:34:10;;;;;;;8.88;5.45;;;;;;;3.87;67.46;97300.91;5111385;28;20074;-74
2021/12/12 10:36:40;;;;;;;9.93;6.00;;;;;;;3.80;68.04;97295.69;5110929;28;20043;-74
2021/12/12 10:39:10;;;;;;;10.50;5.65;;;;;;;3.73;68.05;97294.25;5110859;28;20051;-74
2021/12/12 10:41:41;;;;;;;9.43;5.72;;;;;;;3.64;68.99;97292.00;5110439;28;20790;-74
2021/12/12 10:44:17;;;;;;;10.02;6.10;;;;;;;3.60;69.40;97295.44;5111038;28;20055;-74
2021/12/12 10:46:51;;;;;;;9.10;5.68;;;;;;;3.65;69.66;97295.50;5111170;28;20410;-75
2021/12/12 10:49:24;;;;;;;8.93;5.45;;;;;;;3.86;70.47;97289.31;5111004;28;20051;-74
2021/12/12 10:51:56;;;;;;;11.05;6.47;;;;;;;4.18;69.33;97285.88;5111302;28;20048;-74
2021/12/12 10:54:27;;;;;;;7.28;4.93;;;;;;;4.44;67.44;97290.47;5110688;28;20093;-74
2021/12/12 10:57:01;;;;;;;8.15;5.18;;;;;;;4.67;66.13;97288.50;5110708;28;20802;-75
2021/12/12 10:59:31;;;;;;;9.18;5.40;;;;;;;4.78;66.04;97289.38;5110616;28;20046;-74
2021/12/12 11:02:02;;;;;;;8.60;5.40;;;;;;;4.82;65.13;97291.31;5110741;28;20051;-74
2021/12/12 11:04:43;;;;;;;9.02;6.28;;;;;;;4.82;65.58;97280.53;5110856;28;20050;-75
2021/12/12 11:07:17;;;;;;;9.50;6.00;;;;;;;4.87;65.71;97283.25;5110110;28;20047;-74
2021/12/12 11:09:50;;;;;;;9.02;5.55;;;;;;;4.88;65.66;97275.97;5110697;28;20486;-75
2021/12/12 11:12:25;;;;;;;9.25;5.90;;;;;;;4.90;65.04;97271.91;5110591;27;20048;-74
2021/12/12 11:14:57;;;;;;;10.00;5.85;;;;;;;4.87;64.63;97269.75;5110733;28;20135;-75
2021/12/12 11:17:28;;;;;;;7.20;5.25;;;;;;;4.84;65.25;97274.84;5110176;28;20052;-74
2021/12/12 11:20:01;;;;;;;11.30;5.63;;;;;;;4.87;65.60;97277.84;5109609;28;20490;-74
2021/12/12 11:22:33;;;;;;;9.03;5.80;;;;;;;4.86;64.29;97270.84;5092260;28;20798;-74
2021/12/12 11:25:06;;;;;;;10.43;6.03;;;;;;;4.93;64.48;97266.03;5091483;28;20305;-75
2021/12/12 11:27:38;;;;;;;10.68;6.20;;;;;;;4.92;65.50;97260.88;5110544;28;20409;-74
2021/12/12 11:30:10;;;;;;;10.43;6.53;;;;;;;4.92;65.07;97259.00;5109236;28;20048;-74
2021/12/12 11:32:39;;;;;;;10.77;6.28;;;;;;;4.97;65.03;97256.34;5110552;28;20079;-74
2021/12/12 11:35:09;;;;;;;10.65;6.82;;;;;;;4.97;65.48;97258.22;5109787;28;20071;-74
2021/12/12 11:37:41;;;;;;;11.82;6.43;;;;;;;5.03;66.99;97254.47;5110119;28;20502;-75
2021/12/12 11:40:17;;;;;;;10.52;6.40;;;;;;;5.10;65.77;97262.34;5109208;28;20059;-74
2021/12/12 11:42:52;;;;;;;10.38;6.80;;;;;;;5.15;65.39;97256.97;5090045;28;20131;-72
2021/12/12 11:45:25;;;;;;;10.50;6.50;;;;;;;5.07;64.78;97260.19;5089500;28;20051;-75
2021/12/12 11:48:00;;;;;;;9.30;6.03;;;;;;;5.02;65.96;97255.56;5089803;28;20670;-74
2021/12/12 11:50:38;;;;;;;11.20;6.10;;;;;;;5.02;64.92;97255.56;5089459;28;20043;-72
2021/12/12 11:53:12;;;;;;;10.65;6.10;;;;;;;5.03;64.70;97254.47;5089135;28;20098;-71
2021/12/12 11:55:42;;;;;;;10.45;6.65;;;;;;;5.08;65.06;97251.00;5089329;28;20410;-74
2021/12/12 11:58:22;;;;;;;10.63;6.30;;;;;;;5.11;63.77;97258.56;5088712;28;20446;-73
2021/12/12 12:00:53;;;;;;;11.48;6.55;;;;;;;5.18;64.00;97251.06;5089766;28;20048;-72
2021/12/12 12:03:28;;;;;;;10.10;6.30;;;;;;;5.16;63.63;97247.78;5088897;28;20059;-74